Time;durP1;ratioP1;P1;durP2;ratioP2;P2;SDS_P1;SDS_P2;PMS_P1;PMS_P2;Temp;Humidity;BMP_temperature;BMP_pressure;BME280_temperature;BME280_humidity;BME280_pressure;Samples;Min_cycle;Max_cycle;Signal;HPM_P1;HPM_P2
2023/06/14 00:00:56;;;;;;;0.50;0.50;;;;;;;11.88;59.93;99580.41;5090462;28;20079;-79
2023/06/14 00:03:26;;;;;;;0.50;0.50;;;;;;;11.83;60.31;99579.44;5090252;28;20048;-79
2023/06/14 00:05:53;;;;;;;0.40;0.40;;;;;;;11.70;60.65;99584.06;5090453;28;20555;-79
2023/06/14 00:08:22;;;;;;;0.50;0.50;;;;;;;11.65;60.67;99575.84;5090287;28;20059;-79
2023/06/14 00:10:50;;;;;;;0.40;0.40;;;;;;;11.59;61.14;99592.97;5090515;28;20080;-80
2023/06/14 00:13:18;;;;;;;0.40;0.40;;;;;;;11.54;61.62;99579.34;5089805;28;20063;-80
2023/06/14 00:15:46;;;;;;;0.40;0.40;;;;;;;11.49;61.74;99582.78;5037963;28;20048;-79
2023/06/14 00:18:14;;;;;;;0.50;0.50;;;;;;;11.49;61.87;99587.34;5090088;28;20054;-79
2023/06/14 00:20:42;;;;;;;0.45;0.45;;;;;;;11.48;61.60;99583.03;5090232;28;20079;-78
2023/06/14 00:23:10;;;;;;;0.40;0.40;;;;;;;11.46;61.54;99582.44;5090505;28;20040;-79
2023/06/14 00:25:37;;;;;;;0.40;0.40;;;;;;;11.47;61.74;99581.38;5068463;28;20079;-80
2023/06/14 00:28:06;;;;;;;0.50;0.50;;;;;;;11.40;61.86;99580.69;5070050;28;20048;-79
2023/06/14 00:30:34;;;;;;;0.47;0.47;;;;;;;11.37;62.11;99581.97;5069908;28;20101;-79
2023/06/14 00:33:02;;;;;;;0.40;0.40;;;;;;;11.30;62.12;99580.44;5019472;28;20071;-80
2023/06/14 00:35:29;;;;;;;0.40;0.40;;;;;;;11.28;62.40;99586.91;5077562;28;20078;-76
2023/06/14 00:37:56;;;;;;;0.50;0.50;;;;;;;11.25;62.78;99578.44;5094119;28;20554;-79
2023/06/14 00:40:26;;;;;;;0.40;0.40;;;;;;;11.23;62.65;99578.66;5093970;28;20064;-78
2023/06/14 00:42:54;;;;;;;0.40;0.40;;;;;;;11.19;62.96;99580.22;5093885;28;20135;-78
2023/06/14 00:45:24;;;;;;;0.50;0.50;;;;;;;11.16;63.37;99572.56;5075986;28;20048;-79
2023/06/14 00:47:55;;;;;;;0.40;0.40;;;;;;;11.11;63.73;99582.44;5075790;28;20044;-78
2023/06/14 00:50:24;;;;;;;0.50;0.50;;;;;;;11.07;63.98;99582.09;5093540;28;20052;-79
2023/06/14 00:52:51;;;;;;;0.50;0.50;;;;;;;11.05;64.28;99586.88;5059384;28;20071;-78
2023/06/14 00:55:19;;;;;;;0.40;0.40;;;;;;;11.05;64.18;99579.59;5093739;28;20148;-78
2023/06/14 00:57:47;;;;;;;0.40;0.40;;;;;;;11.05;64.11;99579.59;5093992;28;20060;-80
2023/06/14 01:00:14;;;;;;;0.50;0.50;;;;;;;11.03;64.58;99579.00;5092093;28;20051;-79
2023/06/14 01:02:42;;;;;;;0.40;0.40;;;;;;;11.02;64.48;99571.16;5093912;28;20040;-80
2023/06/14 01:05:14;;;;;;;0.50;0.50;;;;;;;11.03;64.49;99586.28;5075472;28;20052;-79
2023/06/14 01:08:06;;;;;;;0.40;0.40;;;;;;;10.98;64.78;99581.59;5075796;28;20068;-78
2023/06/14 01:10:45;;;;;;;0.50;0.50;;;;;;;10.98;64.80;99578.06;5093306;28;20044;-78
2023/06/14 01:13:20;;;;;;;0.40;0.40;;;;;;;10.99;64.70;99583.25;5058586;28;21155;-79
2023/06/14 01:15:51;;;;;;;0.50;0.50;;;;;;;10.97;64.65;99581.84;5059119;28;20055;-79
2023/06/14 01:18:18;;;;;;;0.50;0.50;;;;;;;11.01;64.75;99586.53;5093378;28;20050;-79
2023/06/14 01:20:49;;;;;;;0.40;0.40;;;;;;;11.01;64.78;99586.53;5075198;28;20040;-79
2023/06/14 01:23:20;;;;;;;0.40;0.40;;;;;;;11.01;64.93;99585.69;5058947;28;20075;-80
2023/06/14 01:25:52;;;;;;;0.50;0.50;;;;;;;10.99;65.03;99583.25;5075269;28;20059;-79
2023/06/14 01:28:21;;;;;;;0.50;0.50;;;;;;;10.99;64.87;99585.13;5074906;28;20093;-79
2023/06/14 01:30:54;;;;;;;0.50;0.50;;;;;;;11.06;64.99;99588.53;5093178;28;20048;-78
2023/06/14 01:33:24;;;;;;;0.50;0.50;;;;;;;11.11;64.51;99590.53;5092905;28;20051;-79
2023/06/14 01:35:58;;;;;;;0.50;0.50;;;;;;;11.13;64.28;99583.84;5085490;28;20094;-79
2023/06/14 01:38:29;;;;;;;0.50;0.50;;;;;;;11.16;64.55;99591.47;5072645;28;20060;-79
2023/06/14 01:40:59;;;;;;;0.50;0.50;;;;;;;11.19;64.71;99577.50;5072648;28;20510;-79
2023/06/14 01:43:30;;;;;;;0.50;0.50;;;;;;;11.25;64.77;99586.56;5054746;28;20110;-79
2023/06/14 01:45:59;;;;;;;0.50;0.50;;;;;;;11.27;64.89;99585.25;5037522;28;20051;-78
2023/06/14 01:48:27;;;;;;;0.50;0.50;;;;;;;11.34;64.72;99589.72;5054362;28;20052;-77
2023/06/14 01:50:55;;;;;;;0.50;0.50;;;;;;;11.38;64.43;99590.91;5078538;28;20054;-78
2023/06/14 01:53:22;;;;;;;0.50;0.50;;;;;;;11.38;64.46;99582.78;5092636;28;20071;-80
2023/06/14 01:55:54;;;;;;;0.50;0.50;;;;;;;11.42;64.22;99592.91;5092630;28;20044;-79
2023/06/14 01:58:24;;;;;;;0.50;0.50;;;;;;;11.45;64.47;99591.59;5091109;28;20043;-79
2023/06/14 02:00:57;;;;;;;0.50;0.50;;;;;;;11.45;64.40;99588.91;5091474;28;20048;-79
2023/06/14 02:03:24;;;;;;;0.50;0.50;;;;;;;11.49;64.38;99587.34;5091034;28;20048;-79
2023/06/14 02:05:52;;;;;;;0.50;0.50;;;;;;;11.50;64.33;99586.31;5085102;28;20068;-78
2023/06/14 02:08:23;;;;;;;0.40;0.40;;;;;;;11.54;64.44;99576.66;5054009;28;20130;-79
2023/06/14 02:10:52;;;;;;;0.50;0.50;;;;;;;11.52;64.71;99559.88;5070820;28;20068;-78
2023/06/14 02:13:24;;;;;;;0.50;0.50;;;;;;;11.70;64.66;99572.44;5071797;28;20044;-79
2023/06/14 02:15:54;;;;;;;0.50;0.50;;;;;;;11.75;64.69;99568.97;5054043;28;20044;-79
2023/06/14 02:18:23;;;;;;;0.50;0.50;;;;;;;11.87;64.52;99576.03;5064962;28;20105;-79
2023/06/14 02:21:10;;;;;;;0.50;0.50;;;;;;;11.97;64.54;99582.72;5042957;28;20655;-79
2023/06/14 02:23:38;;;;;;;0.50;0.50;;;;;;;12.01;64.38;99573.91;5053801;28;20465;-77
2023/06/14 02:26:06;;;;;;;0.50;0.50;;;;;;;12.02;64.76;99570.13;5071671;28;20044;-78
2023/06/14 02:28:35;;;;;;;0.45;0.45;;;;;;;12.11;64.63;99584.91;5071535;28;20052;-79
2023/06/14 02:31:02;;;;;;;0.50;0.50;;;;;;;12.21;64.45;99583.50;5071498;28;20473;-78
2023/06/14 02:33:29;;;;;;;0.50;0.50;;;;;;;12.27;64.07;99583.31;5071524;28;20048;-78
2023/06/14 02:35:57;;;;;;;0.50;0.50;;;;;;;12.39;64.15;99585.19;5061488;28;20280;-80
2023/06/14 02:38:27;;;;;;;0.50;0.50;;;;;;;12.44;63.93;99587.97;5091493;28;20622;-79
2023/06/14 02:40:54;;;;;;;0.50;0.50;;;;;;;12.52;63.48;99593.81;5091706;28;20098;-79
2023/06/14 02:43:21;;;;;;;0.40;0.40;;;;;;;12.56;63.06;99583.34;5073368;28;20429;-79
2023/06/14 02:45:49;;;;;;;0.40;0.40;;;;;;;12.70;62.41;99592.78;5073516;28;20129;-79
2023/06/14 02:48:16;;;;;;;0.50;0.50;;;;;;;12.77;61.99;99585.31;5091429;28;20068;-77
2023/06/14 02:50:44;;;;;;;0.40;0.40;;;;;;;12.90;62.03;99586.06;5091755;28;20066;-79
2023/06/14 02:53:11;;;;;;;0.40;0.40;;;;;;;13.04;61.88;99592.81;5091590;28;20422;-79
2023/06/14 02:55:39;;;;;;;0.50;0.50;;;;;;;13.16;61.85;99600.84;5090341;28;20058;-80
2023/06/14 02:58:09;;;;;;;0.50;0.50;;;;;;;13.27;61.42;99594.56;5090157;28;20125;-79
2023/06/14 03:00:38;;;;;;;0.50;0.50;;;;;;;13.40;61.36;99596.13;5073342;28;20696;-79
2023/06/14 03:03:13;;;;;;;0.40;0.40;;;;;;;13.51;61.28;99599.78;5090186;28;20147;-79
2023/06/14 03:05:49;;;;;;;0.50;0.50;;;;;;;13.64;61.71;99604.84;5086960;28;20083;-79
2023/06/14 03:08:20;;;;;;;0.40;0.40;;;;;;;13.71;61.38;99594.66;5072680;28;20134;-80
2023/06/14 03:10:51;;;;;;;0.50;0.50;;;;;;;13.87;61.16;99606.50;5072860;28;20072;-79
2023/06/14 03:13:20;;;;;;;0.40;0.40;;;;;;;13.98;60.56;99591.19;5072790;28;20536;-79
2023/06/14 03:15:51;;;;;;;0.40;0.40;;;;;;;14.09;60.40;99598.38;5056365;28;20083;-80
2023/06/14 03:18:22;;;;;;;0.40;0.40;;;;;;;14.24;59.85;99598.56;5091105;28;20062;-79
2023/06/14 03:21:00;;;;;;;0.40;0.40;;;;;;;14.35;59.29;99591.34;5073077;28;20043;-79
2023/06/14 03:23:28;;;;;;;0.50;0.50;;;;;;;14.53;59.03;99598.34;5072818;28;20067;-79
2023/06/14 03:25:58;;;;;;;0.40;0.40;;;;;;;14.64;57.88;99594.69;5073196;28;20074;-79
2023/06/14 03:28:27;;;;;;;0.40;0.40;;;;;;;14.79;57.01;99595.91;5091098;28;20048;-79
2023/06/14 03:30:57;;;;;;;0.40;0.40;;;;;;;14.91;56.53;99580.22;5072761;28;20576;-79
2023/06/14 03:33:25;;;;;;;0.40;0.40;;;;;;;15.10;55.56;99586.91;5072563;28;20048;-80
2023/06/14 03:35:55;;;;;;;0.40;0.40;;;;;;;15.25;55.16;99588.94;5069134;28;20114;-79
2023/06/14 03:38:24;;;;;;;0.40;0.40;;;;;;;15.38;54.62;99585.75;5052373;28;20514;-80
2023/06/14 03:40:54;;;;;;;0.40;0.40;;;;;;;15.48;54.27;99584.19;5069165;28;20083;-78
2023/06/14 03:43:21;;;;;;;0.40;0.40;;;;;;;15.63;53.85;99580.75;5060342;28;20518;-78
2023/06/14 03:45:49;;;;;;;0.40;0.40;;;;;;;15.77;51.84;99581.94;5089558;28;20078;-79
2023/06/14 03:48:17;;;;;;;0.40;0.40;;;;;;;15.88;52.47;99591.78;5048609;28;20084;-78
2023/06/14 03:50:48;;;;;;;0.32;0.32;;;;;;;16.01;52.21;99596.75;5047794;28;20041;-81
2023/06/14 03:53:16;;;;;;;0.40;0.40;;;;;;;16.13;51.71;99592.97;5047663;28;20095;-78
2023/06/14 03:55:48;;;;;;;0.40;0.40;;;;;;;16.23;50.97;99595.75;5031160;28;20053;-79
2023/06/14 03:58:22;;;;;;;0.38;0.38;;;;;;;16.34;51.26;99600.13;5030917;28;20135;-79
2023/06/14 04:00:50;;;;;;;0.40;0.40;;;;;;;16.42;50.47;99591.44;5030766;28;20061;-79
2023/06/14 04:03:17;;;;;;;0.40;0.40;;;;;;;16.53;49.41;99595.00;5014266;28;20114;-81
2023/06/14 04:05:49;;;;;;;0.40;0.40;;;;;;;16.61;48.34;99593.63;5031023;28;20045;-79
2023/06/14 04:08:19;;;;;;;0.40;0.40;;;;;;;16.72;47.59;99594.50;5030429;28;20103;-80
2023/06/14 04:10:47;;;;;;;0.40;0.40;;;;;;;16.79;46.70;99595.91;5047364;28;20053;-80
2023/06/14 04:13:17;;;;;;;0.45;0.45;;;;;;;16.81;45.96;99591.00;5030900;28;20089;-80
2023/06/14 04:15:45;;;;;;;0.40;0.40;;;;;;;16.90;46.72;99594.00;5013941;28;20045;-79
2023/06/14 04:18:19;;;;;;;;;;;;;;;17.01;46.62;99597.53;5033696;28;20517;-79
2023/06/14 04:20:50;;;;;;;0.32;0.32;;;;;;;17.07;45.92;99596.47;5066356;28;19925;-80
2023/06/14 04:23:18;;;;;;;0.40;0.40;;;;;;;17.16;46.37;99589.34;5059417;28;20056;-80
2023/06/14 04:26:01;;;;;;;0.40;0.40;;;;;;;17.24;46.17;99588.81;5054924;28;20448;-79
2023/06/14 04:28:28;;;;;;;0.30;0.30;;;;;;;17.43;45.83;99593.69;5035390;28;20079;-78
2023/06/14 04:31:01;;;;;;;0.30;0.30;;;;;;;17.53;45.08;99590.94;5051683;28;20570;-79
2023/06/14 04:33:43;;;;;;;0.40;0.40;;;;;;;17.61;45.69;99590.38;5051873;28;20098;-79
2023/06/14 04:36:17;;;;;;;0.40;0.40;;;;;;;17.75;45.59;99585.16;5059068;28;20143;-80
2023/06/14 04:38:48;;;;;;;0.30;0.30;;;;;;;17.85;45.29;99589.78;5052691;28;20041;-80
2023/06/14 04:41:19;;;;;;;0.40;0.40;;;;;;;17.92;45.33;99584.84;5104486;28;20051;-80
2023/06/14 04:43:49;;;;;;;0.30;0.30;;;;;;;18.02;45.03;99590.28;5088529;28;20221;-79
2023/06/14 04:46:17;;;;;;;0.40;0.40;;;;;;;18.09;44.93;99588.06;5088379;28;20131;-79
2023/06/14 04:48:45;;;;;;;0.35;0.35;;;;;;;18.15;44.83;99581.50;5071893;28;20062;-80
2023/06/14 04:51:13;;;;;;;0.40;0.40;;;;;;;18.20;44.86;99577.91;5089056;28;20036;-80
2023/06/14 04:53:43;;;;;;;0.30;0.30;;;;;;;18.31;44.30;99582.22;5089280;28;20044;-81
2023/06/14 04:56:11;;;;;;;0.30;0.30;;;;;;;18.37;43.51;99585.75;5088952;28;20117;-80
2023/06/14 04:58:38;;;;;;;0.40;0.40;;;;;;;18.39;43.54;99581.63;5088860;28;20052;-78
2023/06/14 05:01:09;;;;;;;0.40;0.40;;;;;;;18.46;43.25;99584.06;5064419;28;20045;-81
2023/06/14 05:03:38;;;;;;;0.30;0.30;;;;;;;18.51;43.26;99585.91;5073069;28;20719;-79
2023/06/14 05:06:06;;;;;;;0.30;0.30;;;;;;;18.59;42.92;99577.16;5056895;28;20101;-80
2023/06/14 05:08:33;;;;;;;0.40;0.40;;;;;;;18.69;42.79;99568.88;5047964;28;20414;-80
2023/06/14 05:11:00;;;;;;;0.30;0.30;;;;;;;18.71;42.21;99574.03;5068642;28;20063;-80
2023/06/14 05:13:28;;;;;;;0.30;0.30;;;;;;;18.74;42.71;99574.31;5087820;28;20051;-80
2023/06/14 05:15:55;;;;;;;0.30;0.30;;;;;;;18.78;42.09;99580.03;5061041;28;20452;-80
2023/06/14 05:18:22;;;;;;;0.30;0.30;;;;;;;18.82;41.74;99575.66;5071416;28;20044;-81
2023/06/14 05:20:50;;;;;;;0.30;0.30;;;;;;;18.94;41.92;99573.38;5073844;28;20048;-80
2023/06/14 05:23:19;;;;;;;0.40;0.40;;;;;;;19.00;41.60;99580.41;5093049;28;20135;-81
2023/06/14 05:25:46;;;;;;;0.30;0.30;;;;;;;19.05;41.16;99571.34;5074236;28;20525;-81
2023/06/14 05:28:16;;;;;;;0.30;0.30;;;;;;;19.07;41.19;99574.63;5083610;28;20484;-80
2023/06/14 05:30:43;;;;;;;0.30;0.30;;;;;;;19.15;40.84;99579.47;5079914;28;20101;-81
2023/06/14 05:33:11;;;;;;;0.40;0.40;;;;;;;19.22;40.74;99570.94;5079560;28;20051;-81
2023/06/14 05:35:41;;;;;;;0.30;0.30;;;;;;;19.28;39.66;99569.78;5090728;28;20086;-80
2023/06/14 05:38:08;;;;;;;0.30;0.30;;;;;;;19.27;39.35;99571.69;5072546;28;20502;-80
2023/06/14 05:43:36;;;;;;;0.30;0.30;;;;;;;19.44;38.68;99579.47;5044617;28;20266;-81
2023/06/14 05:46:03;;;;;;;0.30;0.30;;;;;;;19.56;39.50;99573.59;5054249;28;20053;-79
2023/06/14 05:48:31;;;;;;;0.30;0.30;;;;;;;19.68;38.43;99575.97;5052790;28;20155;-81
2023/06/14 05:51:00;;;;;;;0.30;0.30;;;;;;;19.62;37.41;99558.75;5029637;28;20041;-80
2023/06/14 05:53:27;;;;;;;0.30;0.30;;;;;;;19.71;36.96;99575.38;5045673;28;20049;-80
2023/06/14 05:56:13;;;;;;;0.30;0.30;;;;;;;19.75;37.28;99581.91;5042166;28;20502;-78
2023/06/14 05:58:56;;;;;;;0.30;0.30;;;;;;;19.70;36.93;99581.97;5035323;28;20140;-81
2023/06/14 06:01:23;;;;;;;0.40;0.40;;;;;;;19.70;37.39;99579.25;5055209;28;20148;-80
2023/06/14 06:03:50;;;;;;;0.30;0.30;;;;;;;19.76;37.19;99582.72;5056445;28;20083;-81
2023/06/14 06:06:19;;;;;;;0.30;0.30;;;;;;;19.90;37.06;99592.69;5036023;28;20052;-81
2023/06/14 06:08:46;;;;;;;0.30;0.30;;;;;;;19.90;36.39;99586.38;5045464;28;20049;-80
2023/06/14 06:11:13;;;;;;;0.30;0.30;;;;;;;19.97;36.25;99584.13;5016076;28;20045;-81
2023/06/14 06:13:41;;;;;;;0.30;0.30;;;;;;;20.01;35.36;99584.34;5057895;28;20545;-80
2023/06/14 06:16:11;;;;;;;0.40;0.40;;;;;;;20.02;35.01;99581.31;5071778;28;20040;-80
2023/06/14 06:18:38;;;;;;;0.30;0.30;;;;;;;20.17;34.66;99588.53;5091866;28;20058;-78
2023/06/14 06:21:22;;;;;;;0.38;0.38;;;;;;;20.20;34.38;99587.13;5075868;28;20503;-80
2023/06/14 06:23:49;;;;;;;0.30;0.30;;;;;;;20.26;33.56;99586.78;5062324;28;20390;-78
2023/06/14 06:26:17;;;;;;;0.30;0.30;;;;;;;20.27;33.50;99593.88;5054661;28;20110;-79
2023/06/14 06:28:45;;;;;;;0.30;0.30;;;;;;;20.34;33.42;99588.03;5091720;28;20056;-80
2023/06/14 06:31:15;;;;;;;0.30;0.30;;;;;;;20.44;33.49;99581.59;5085896;28;20052;-81
2023/06/14 06:33:42;;;;;;;0.30;0.30;;;;;;;20.52;32.78;99589.16;5078228;28;20071;-79
2023/06/14 06:36:12;;;;;;;0.30;0.30;;;;;;;20.58;33.07;99587.97;5085238;28;20056;-81
2023/06/14 06:38:39;;;;;;;0.30;0.30;;;;;;;20.58;33.22;99582.50;5091604;28;20058;-80
2023/06/14 06:41:07;;;;;;;0.30;0.30;;;;;;;20.62;33.75;99585.47;5073224;28;20071;-80
2023/06/14 06:43:37;;;;;;;0.30;0.30;;;;;;;20.65;34.13;99584.88;5071493;28;20064;-79
2023/06/14 06:46:04;;;;;;;0.30;0.30;;;;;;;20.64;33.88;99586.81;5073512;28;20048;-80
2023/06/14 06:48:31;;;;;;;0.30;0.30;;;;;;;20.69;34.00;99589.47;5062339;28;20131;-81
2023/06/14 06:50:59;;;;;;;0.30;0.30;;;;;;;20.76;33.21;99576.22;5074727;28;20147;-80
2023/06/14 06:53:28;;;;;;;0.30;0.30;;;;;;;20.76;33.27;99587.19;5071342;28;20127;-81
2023/06/14 06:56:08;;;;;;;0.30;0.30;;;;;;;20.90;32.59;99586.41;5071078;28;20040;-81
2023/06/14 06:58:35;;;;;;;0.30;0.30;;;;;;;20.88;32.29;99580.41;5077005;28;20410;-81
2023/06/14 07:01:03;;;;;;;0.30;0.30;;;;;;;20.86;32.45;99574.41;5091140;28;20052;-80
2023/06/14 07:03:31;;;;;;;0.30;0.30;;;;;;;20.86;32.70;99577.16;5089438;28;20522;-81
2023/06/14 07:06:02;;;;;;;0.30;0.30;;;;;;;20.98;32.60;99575.56;5055712;28;20052;-81
2023/06/14 07:08:32;;;;;;;0.30;0.30;;;;;;;21.05;32.97;99560.66;5088912;28;20052;-82
2023/06/14 07:10:59;;;;;;;0.30;0.30;;;;;;;21.12;31.75;99580.31;5090694;28;20060;-81
2023/06/14 07:13:46;;;;;;;0.30;0.30;;;;;;;21.17;32.02;99580.22;5072730;28;20566;-80
2023/06/14 07:16:14;;;;;;;0.30;0.30;;;;;;;21.17;31.81;99572.00;5088395;28;20440;-81
2023/06/14 07:18:41;;;;;;;0.30;0.30;;;;;;;21.16;31.38;99571.16;5015623;28;20388;-80
2023/06/14 07:21:11;;;;;;;0.30;0.30;;;;;;;21.11;31.58;99560.25;5014630;28;20084;-82
2023/06/14 07:23:39;;;;;;;0.30;0.30;;;;;;;21.14;31.33;99570.66;5028305;28;20050;-82
2023/06/14 07:26:07;;;;;;;0.30;0.30;;;;;;;21.20;31.69;99565.88;5028333;28;20049;-80
2023/06/14 07:28:34;;;;;;;0.30;0.30;;;;;;;21.30;30.91;99567.66;5035452;28;20536;-81
2023/06/14 07:31:04;;;;;;;0.30;0.30;;;;;;;21.35;31.45;99568.34;5048357;28;20048;-81
2023/06/14 07:33:31;;;;;;;0.30;0.30;;;;;;;21.42;31.25;99562.47;5048021;28;20045;-80
2023/06/14 07:36:00;;;;;;;0.30;0.30;;;;;;;21.50;31.40;99567.31;5039779;28;20427;-81
2023/06/14 07:38:27;;;;;;;0.30;0.30;;;;;;;21.56;30.67;99566.06;5027888;28;20084;-81
2023/06/14 07:41:16;;;;;;;0.30;0.30;;;;;;;21.68;30.93;99562.03;5027796;28;20049;-81
2023/06/14 07:43:43;;;;;;;0.30;0.30;;;;;;;21.83;30.38;99567.22;5027289;28;20057;-80
2023/06/14 07:46:29;;;;;;;0.30;0.30;;;;;;;21.98;30.68;99558.66;5028204;28;20049;-80
2023/06/14 07:51:44;;;;;;;0.40;0.40;;;;;;;22.36;30.18;99552.91;5072121;28;20044;-81
2023/06/14 07:54:32;;;;;;;0.40;0.40;;;;;;;22.43;30.08;99553.31;5090490;28;20044;-82
2023/06/14 07:57:00;;;;;;;0.40;0.40;;;;;;;22.56;30.23;99548.06;5090714;28;20056;-81
2023/06/14 07:59:27;;;;;;;0.40;0.40;;;;;;;22.80;29.87;99551.34;5089919;28;20045;-81
2023/06/14 08:01:54;;;;;;;0.40;0.40;;;;;;;23.08;29.13;99556.72;5055570;28;20051;-81
2023/06/14 08:04:22;;;;;;;0.40;0.40;;;;;;;23.06;28.46;99550.72;5089517;28;20044;-81
2023/06/14 08:06:49;;;;;;;0.40;0.40;;;;;;;23.06;28.91;99558.97;5074524;28;20053;-81
2023/06/14 08:09:19;;;;;;;0.40;0.40;;;;;;;23.07;28.82;99558.69;5070240;28;20048;-82
2023/06/14 08:11:46;;;;;;;0.40;0.40;;;;;;;23.17;28.59;99556.78;5072844;28;20072;-81
2023/06/14 08:14:24;;;;;;;0.40;0.40;;;;;;;23.28;28.26;99556.22;5069706;28;20060;-81
2023/06/14 08:16:51;;;;;;;0.40;0.40;;;;;;;23.32;28.51;99562.72;5069676;28;20529;-82
2023/06/14 08:19:19;;;;;;;0.40;0.40;;;;;;;23.55;28.32;99562.66;5069584;28;20147;-82
2023/06/14 08:21:48;;;;;;;0.40;0.40;;;;;;;23.66;28.21;99549.41;5069894;28;20511;-82
2023/06/14 08:24:15;;;;;;;0.40;0.40;;;;;;;23.90;28.43;99552.63;5072455;28;20418;-81
2023/06/14 08:26:42;;;;;;;0.40;0.40;;;;;;;24.17;27.75;99559.00;5089052;28;20090;-81
2023/06/14 08:29:10;;;;;;;0.40;0.40;;;;;;;24.12;27.31;99559.94;5090063;28;20052;-81
2023/06/14 08:31:40;;;;;;;0.40;0.40;;;;;;;24.07;26.87;99549.06;5090156;28;20070;-81
2023/06/14 08:34:07;;;;;;;0.40;0.40;;;;;;;24.19;26.70;99546.50;5090169;28;20050;-81
2023/06/14 08:36:37;;;;;;;0.40;0.40;;;;;;;24.24;27.17;99551.06;5089425;28;20048;-81
2023/06/14 08:39:05;;;;;;;0.40;0.40;;;;;;;24.45;26.92;99551.25;5090013;28;20076;-81
2023/06/14 08:41:33;;;;;;;0.40;0.40;;;;;;;24.52;26.75;99532.28;5088363;28;20050;-81
2023/06/14 08:44:00;;;;;;;0.40;0.40;;;;;;;24.93;26.09;99536.47;5055351;28;20582;-82
2023/06/14 08:46:32;;;;;;;0.40;0.40;;;;;;;25.23;25.94;99547.66;5054996;28;20068;-82
2023/06/14 08:49:01;;;;;;;0.40;0.40;;;;;;;25.36;25.88;99537.53;5071957;28;20569;-82
2023/06/14 08:51:36;;;;;;;0.40;0.40;;;;;;;25.38;25.91;99530.53;5071934;28;20052;-81
2023/06/14 08:54:04;;;;;;;0.30;0.30;;;;;;;25.45;26.28;99541.91;5091291;28;20080;-81
2023/06/14 08:56:33;;;;;;;0.40;0.40;;;;;;;25.41;25.75;99548.41;5093405;28;20054;-81
2023/06/14 08:59:04;;;;;;;0.40;0.40;;;;;;;25.29;25.41;99543.56;5093013;28;20101;-82
2023/06/14 09:01:34;;;;;;;0.40;0.40;;;;;;;25.44;24.98;99534.72;5091857;28;20477;-82
2023/06/14 09:04:29;;;;;;;0.40;0.40;;;;;;;26.27;24.80;99527.00;5040994;28;20418;-83
2023/06/14 09:07:00;;;;;;;0.40;0.40;;;;;;;26.46;24.02;99520.97;5071988;28;20135;-82
2023/06/14 09:09:30;;;;;;;0.47;0.47;;;;;;;26.61;23.58;99525.94;5074706;28;20080;-84
2023/06/14 09:11:57;;;;;;;0.47;0.47;;;;;;;26.67;23.76;99537.63;5059134;28;20049;-81
2023/06/14 09:14:25;;;;;;;0.40;0.40;;;;;;;26.96;22.97;99520.06;5072837;28;20128;-81
2023/06/14 09:16:53;;;;;;;0.40;0.40;;;;;;;27.47;23.21;99512.34;5038545;28;20113;-82
2023/06/14 09:19:24;;;;;;;0.50;0.50;;;;;;;27.50;22.68;99511.66;5071243;28;20063;-81
2023/06/14 09:21:53;;;;;;;0.40;0.40;;;;;;;27.82;21.89;99511.91;5079654;28;20133;-82
2023/06/14 09:24:25;;;;;;;0.40;0.40;;;;;;;27.71;22.52;99502.44;5075253;28;20089;-84
2023/06/14 09:26:54;;;;;;;0.50;0.50;;;;;;;27.90;22.22;99512.94;5093222;28;20135;-80
2023/06/14 09:29:21;;;;;;;0.40;0.40;;;;;;;27.89;22.15;99523.25;5092855;28;20510;-82
2023/06/14 09:31:48;;;;;;;0.40;0.40;;;;;;;28.06;22.25;99513.88;5091771;28;20086;-83
2023/06/14 09:34:17;;;;;;;0.40;0.40;;;;;;;28.38;21.61;99491.81;5071566;28;20059;-80
2023/06/14 09:36:45;;;;;;;0.40;0.40;;;;;;;28.46;21.16;99500.03;5080292;28;20048;-81
2023/06/14 09:39:17;;;;;;;0.40;0.40;;;;;;;28.50;20.69;99514.00;5038418;28;20051;-82
2023/06/14 09:41:44;;;;;;;0.40;0.40;;;;;;;28.56;20.47;99506.22;5077617;28;20055;-83
2023/06/14 09:44:12;;;;;;;0.40;0.40;;;;;;;28.33;21.64;99508.72;5063335;28;20439;-83
2023/06/14 09:46:48;;;;;;;0.40;0.40;;;;;;;28.57;20.83;99502.31;5084282;28;20121;-83
2023/06/14 09:49:34;;;;;;;0.40;0.40;;;;;;;28.65;20.41;99504.91;5074482;28;20051;-84
2023/06/14 09:52:02;;;;;;;0.40;0.40;;;;;;;28.81;19.93;99507.75;5063084;28;20121;-82
2023/06/14 09:54:30;;;;;;;0.40;0.40;;;;;;;29.05;20.65;99508.78;5049051;28;20515;-85
2023/06/14 09:56:58;;;;;;;0.40;0.40;;;;;;;28.96;20.49;99486.72;5074448;28;20067;-84
2023/06/14 09:59:29;;;;;;;0.40;0.40;;;;;;;29.25;20.30;99496.66;5072844;28;20289;-85
2023/06/14 10:02:08;;;;;;;0.40;0.40;;;;;;;29.46;19.11;99493.59;5044998;28;20060;-82
2023/06/14 10:04:39;;;;;;;0.40;0.40;;;;;;;29.64;19.26;99485.69;5080761;28;20514;-83
2023/06/14 10:07:06;;;;;;;0.40;0.40;;;;;;;29.68;18.76;99475.50;5057595;28;20059;-81
2023/06/14 10:09:34;;;;;;;0.40;0.40;;;;;;;30.35;18.28;99483.75;5062625;28;20053;-81
2023/06/14 10:12:05;;;;;;;0.40;0.40;;;;;;;30.88;18.78;99494.38;5072264;28;20095;-82
2023/06/14 10:14:33;;;;;;;0.40;0.40;;;;;;;31.13;18.71;99463.38;5037683;28;20045;-82
2023/06/14 10:17:05;;;;;;;0.40;0.40;;;;;;;31.53;18.49;99483.19;5076180;28;20510;-82
2023/06/14 10:19:52;;;;;;;0.40;0.40;;;;;;;31.46;18.46;99471.91;5066191;28;20167;-82
2023/06/14 10:22:58;;;;;;;0.35;0.35;;;;;;;31.66;18.25;99478.22;5073647;28;20143;-81
2023/06/14 10:25:29;;;;;;;0.40;0.40;;;;;;;31.47;18.11;99470.75;5052864;28;20487;-82
2023/06/14 10:28:12;;;;;;;0.40;0.40;;;;;;;31.80;18.36;99485.19;5052614;28;20044;-81
2023/06/14 10:30:39;;;;;;;0.40;0.40;;;;;;;31.84;18.34;99486.03;5062683;28;20048;-81
2023/06/14 10:33:10;;;;;;;0.40;0.40;;;;;;;31.88;18.32;99462.59;5045392;28;20051;-81
2023/06/14 10:35:37;;;;;;;0.30;0.30;;;;;;;31.91;18.19;99467.41;5062530;28;20043;-82
2023/06/14 10:38:12;;;;;;;0.40;0.40;;;;;;;32.27;18.23;99453.97;5053053;28;20499;-82
2023/06/14 10:40:39;;;;;;;0.40;0.40;;;;;;;32.70;17.56;99460.09;5055674;28;20060;-82
2023/06/14 10:43:24;;;;;;;0.40;0.40;;;;;;;32.70;17.55;99462.88;5049697;28;20057;-82
2023/06/14 10:46:18;;;;;;;0.40;0.40;;;;;;;32.58;17.81;99457.53;5055629;28;20051;-82
2023/06/14 10:48:45;;;;;;;0.40;0.40;;;;;;;32.74;17.23;99433.00;5039008;28;20088;-81
2023/06/14 10:51:22;;;;;;;0.30;0.30;;;;;;;32.97;17.39;99455.16;5070466;28;20044;-83
2023/06/14 10:53:51;;;;;;;0.40;0.40;;;;;;;33.26;16.80;99455.44;5050603;28;20067;-81
2023/06/14 10:56:30;;;;;;;0.30;0.30;;;;;;;33.85;16.60;99453.50;5052005;28;20125;-81
2023/06/14 10:58:57;;;;;;;0.30;0.30;;;;;;;34.13;16.47;99448.47;5050828;28;20056;-81
2023/06/14 11:01:42;;;;;;;0.30;0.30;;;;;;;34.50;16.29;99454.63;5063544;28;20055;-82
2023/06/14 11:04:10;;;;;;;0.30;0.30;;;;;;;34.59;16.51;99457.09;5073808;28;20113;-82
2023/06/14 11:06:49;;;;;;;0.30;0.30;;;;;;;33.96;16.53;99442.38;5089148;28;20109;-82
2023/06/14 11:09:47;;;;;;;0.30;0.30;;;;;;;33.69;16.68;99450.19;5080302;28;20045;-83
2023/06/14 11:12:17;;;;;;;0.40;0.40;;;;;;;33.89;16.89;99442.31;5070669;28;20052;-83
2023/06/14 11:14:48;;;;;;;0.30;0.30;;;;;;;34.39;15.98;99439.78;5100971;28;20044;-82
2023/06/14 11:17:15;;;;;;;0.30;0.30;;;;;;;34.36;16.04;99450.97;5089747;28;20071;-82
2023/06/14 11:19:43;;;;;;;0.30;0.30;;;;;;;34.29;16.25;99438.53;5085421;28;20044;-82
2023/06/14 11:22:12;;;;;;;0.30;0.30;;;;;;;34.66;16.21;99445.09;5070517;28;20094;-81
2023/06/14 11:24:39;;;;;;;0.30;0.30;;;;;;;35.05;15.48;99421.94;5052554;28;20048;-82
2023/06/14 11:27:09;;;;;;;0.30;0.30;;;;;;;35.22;15.48;99443.56;5070302;28;20102;-82
2023/06/14 11:29:38;;;;;;;0.32;0.32;;;;;;;35.27;15.50;99433.97;5070462;28;20800;-82
2023/06/14 11:32:12;;;;;;;0.38;0.38;;;;;;;35.42;15.42;99435.53;5036987;28;20052;-81
2023/06/14 11:34:42;;;;;;;;;;;;;;;35.41;15.55;99433.16;5070683;28;20495;-81
2023/06/14 11:37:09;;;;;;;0.30;0.30;;;;;;;35.66;15.13;99431.16;5070312;28;19971;-81
2023/06/14 11:39:36;;;;;;;0.30;0.30;;;;;;;35.93;14.88;99411.00;5072762;28;20204;-81
2023/06/14 11:42:04;;;;;;;0.40;0.40;;;;;;;36.18;14.79;99403.31;5090532;28;20052;-80
2023/06/14 11:44:31;;;;;;;0.40;0.40;;;;;;;35.76;15.14;99426.72;5090462;28;20070;-82
2023/06/14 11:47:04;;;;;;;0.40;0.40;;;;;;;35.61;15.26;99419.53;5073203;28;20154;-82
2023/06/14 11:49:36;;;;;;;0.40;0.40;;;;;;;35.69;15.60;99410.69;5090359;28;20043;-81
2023/06/14 11:52:04;;;;;;;0.30;0.30;;;;;;;36.20;15.33;99409.31;5072535;28;20075;-81
2023/06/14 11:54:32;;;;;;;0.40;0.40;;;;;;;36.22;15.22;99408.94;5090379;28;20405;-81